sensor_id;sensor_type;location;lat;lon;timestamp;temperature;humidity
22192;DHT22;11261;52.456;10.850;2023-08-31T00:00:02;14.50;99.90
22192;DHT22;11261;52.456;10.850;2023-08-31T00:02:31;14.50;99.90
22192;DHT22;11261;52.456;10.850;2023-08-31T00:05:00;14.50;99.90
22192;DHT22;11261;52.456;10.850;2023-08-31T00:07:29;14.60;99.90
22192;DHT22;11261;52.456;10.850;2023-08-31T00:09:58;14.50;99.90
22192;DHT22;11261;52.456;10.850;2023-08-31T00:12:27;14.50;99.90
22192;DHT22;11261;52.456;10.850;2023-08-31T00:14:55;14.60;99.90
22192;DHT22;11261;52.456;10.850;2023-08-31T00:17:26;14.50;99.90
22192;DHT22;11261;52.456;10.850;2023-08-31T00:19:54;14.40;99.90
22192;DHT22;11261;52.456;10.850;2023-08-31T00:22:22;14.50;99.90
22192;DHT22;11261;52.456;10.850;2023-08-31T00:24:51;14.50;99.90
22192;DHT22;11261;52.456;10.850;2023-08-31T00:27:20;14.50;99.90
22192;DHT22;11261;52.456;10.850;2023-08-31T00:29:48;14.30;99.90
22192;DHT22;11261;52.456;10.850;2023-08-31T00:32:17;14.30;99.90
22192;DHT22;11261;52.456;10.850;2023-08-31T00:34:47;14.30;99.90
22192;DHT22;11261;52.456;10.850;2023-08-31T00:37:15;14.30;99.90
22192;DHT22;11261;52.456;10.850;2023-08-31T00:39:44;14.30;99.90
22192;DHT22;11261;52.456;10.850;2023-08-31T00:42:13;14.30;99.90
22192;DHT22;11261;52.456;10.850;2023-08-31T00:44:42;14.20;99.90
22192;DHT22;11261;52.456;10.850;2023-08-31T00:47:10;14.20;99.90
22192;DHT22;11261;52.456;10.850;2023-08-31T00:49:39;14.20;99.90
22192;DHT22;11261;52.456;10.850;2023-08-31T00:52:09;14.20;99.90
22192;DHT22;11261;52.456;10.850;2023-08-31T00:54:38;14.10;99.90
22192;DHT22;11261;52.456;10.850;2023-08-31T00:57:09;14.10;99.90
22192;DHT22;11261;52.456;10.850;2023-08-31T00:59:37;14.10;99.90
22192;DHT22;11261;52.456;10.850;2023-08-31T01:02:10;14.10;99.90
22192;DHT22;11261;52.456;10.850;2023-08-31T01:04:47;14.20;99.90
22192;DHT22;11261;52.456;10.850;2023-08-31T01:07:30;14.20;99.90
22192;DHT22;11261;52.456;10.850;2023-08-31T01:10:07;14.10;99.90
22192;DHT22;11261;52.456;10.850;2023-08-31T01:12:44;14.20;99.90
22192;DHT22;11261;52.456;10.850;2023-08-31T01:15:15;14.20;99.90
22192;DHT22;11261;52.456;10.850;2023-08-31T01:17:47;14.20;99.90
22192;DHT22;11261;52.456;10.850;2023-08-31T01:20:19;14.10;99.90
22192;DHT22;11261;52.456;10.850;2023-08-31T01:22:55;14.20;99.90
22192;DHT22;11261;52.456;10.850;2023-08-31T01:25:28;14.10;99.90
22192;DHT22;11261;52.456;10.850;2023-08-31T01:27:58;14.10;99.90
22192;DHT22;11261;52.456;10.850;2023-08-31T01:30:29;14.10;99.90
22192;DHT22;11261;52.456;10.850;2023-08-31T01:32:59;14.00;99.90
22192;DHT22;11261;52.456;10.850;2023-08-31T01:35:32;14.00;99.90
22192;DHT22;11261;52.456;10.850;2023-08-31T01:38:04;13.90;99.90
22192;DHT22;11261;52.456;10.850;2023-08-31T01:40:40;13.80;99.90
22192;DHT22;11261;52.456;10.850;2023-08-31T01:43:11;13.80;99.90
22192;DHT22;11261;52.456;10.850;2023-08-31T01:45:40;13.80;99.90
22192;DHT22;11261;52.456;10.850;2023-08-31T01:48:09;13.70;99.90
22192;DHT22;11261;52.456;10.850;2023-08-31T01:50:38;13.70;99.90
22192;DHT22;11261;52.456;10.850;2023-08-31T01:53:06;13.70;99.90
22192;DHT22;11261;52.456;10.850;2023-08-31T01:55:37;13.70;99.90
22192;DHT22;11261;52.456;10.850;2023-08-31T01:58:05;13.70;99.90
22192;DHT22;11261;52.456;10.850;2023-08-31T02:00:34;13.60;99.90
22192;DHT22;11261;52.456;10.850;2023-08-31T02:03:05;13.60;99.90
22192;DHT22;11261;52.456;10.850;2023-08-31T02:05:35;13.60;99.90
22192;DHT22;11261;52.456;10.850;2023-08-31T02:08:03;13.60;99.90
22192;DHT22;11261;52.456;10.850;2023-08-31T02:10:32;13.60;99.90
22192;DHT22;11261;52.456;10.850;2023-08-31T02:13:02;13.60;99.90
22192;DHT22;11261;52.456;10.850;2023-08-31T02:15:30;13.50;99.90
22192;DHT22;11261;52.456;10.850;2023-08-31T02:17:58;13.40;99.90
22192;DHT22;11261;52.456;10.850;2023-08-31T02:20:26;13.40;99.90
22192;DHT22;11261;52.456;10.850;2023-08-31T02:22:55;13.30;99.90
22192;DHT22;11261;52.456;10.850;2023-08-31T02:25:24;13.30;99.90
22192;DHT22;11261;52.456;10.850;2023-08-31T02:27:54;13.30;99.90
22192;DHT22;11261;52.456;10.850;2023-08-31T02:30:24;13.30;99.90
22192;DHT22;11261;52.456;10.850;2023-08-31T02:32:52;13.30;99.90
22192;DHT22;11261;52.456;10.850;2023-08-31T02:35:21;13.20;99.90
22192;DHT22;11261;52.456;10.850;2023-08-31T02:37:49;13.20;99.90
22192;DHT22;11261;52.456;10.850;2023-08-31T02:40:18;13.20;99.90
22192;DHT22;11261;52.456;10.850;2023-08-31T02:42:50;13.20;99.90
22192;DHT22;11261;52.456;10.850;2023-08-31T02:45:18;13.20;99.90
22192;DHT22;11261;52.456;10.850;2023-08-31T02:47:48;13.30;99.90
22192;DHT22;11261;52.456;10.850;2023-08-31T02:50:17;13.20;99.90
22192;DHT22;11261;52.456;10.850;2023-08-31T02:52:46;13.20;99.90
22192;DHT22;11261;52.456;10.850;2023-08-31T02:55:14;13.10;99.90
22192;DHT22;11261;52.456;10.850;2023-08-31T02:57:42;13.10;99.90
22192;DHT22;11261;52.456;10.850;2023-08-31T03:00:12;13.10;99.90
22192;DHT22;11261;52.456;10.850;2023-08-31T03:02:41;13.00;99.90
22192;DHT22;11261;52.456;10.850;2023-08-31T03:05:12;13.00;99.90
22192;DHT22;11261;52.456;10.850;2023-08-31T03:07:40;13.10;99.90
22192;DHT22;11261;52.456;10.850;2023-08-31T03:10:09;13.10;99.90
22192;DHT22;11261;52.456;10.850;2023-08-31T03:12:39;13.10;99.90
22192;DHT22;11261;52.456;10.850;2023-08-31T03:15:08;13.10;99.90
22192;DHT22;11261;52.456;10.850;2023-08-31T03:17:36;13.00;99.90
22192;DHT22;11261;52.456;10.850;2023-08-31T03:20:06;13.00;99.90
22192;DHT22;11261;52.456;10.850;2023-08-31T03:22:36;13.00;99.90
22192;DHT22;11261;52.456;10.850;2023-08-31T03:25:04;12.90;99.90
22192;DHT22;11261;52.456;10.850;2023-08-31T03:27:33;12.90;99.90
22192;DHT22;11261;52.456;10.850;2023-08-31T03:30:02;12.90;99.90
22192;DHT22;11261;52.456;10.850;2023-08-31T03:32:31;13.00;99.90
22192;DHT22;11261;52.456;10.850;2023-08-31T03:34:59;12.90;99.90
22192;DHT22;11261;52.456;10.850;2023-08-31T03:37:29;12.90;99.90
22192;DHT22;11261;52.456;10.850;2023-08-31T03:39:59;12.80;99.90
22192;DHT22;11261;52.456;10.850;2023-08-31T03:42:27;12.90;99.90
22192;DHT22;11261;52.456;10.850;2023-08-31T03:44:55;12.90;99.90
22192;DHT22;11261;52.456;10.850;2023-08-31T03:47:24;12.90;99.90
22192;DHT22;11261;52.456;10.850;2023-08-31T03:49:52;12.90;99.90
22192;DHT22;11261;52.456;10.850;2023-08-31T03:52:20;12.90;99.90
22192;DHT22;11261;52.456;10.850;2023-08-31T03:54:51;12.90;99.90
22192;DHT22;11261;52.456;10.850;2023-08-31T03:57:21;12.90;99.90
22192;DHT22;11261;52.456;10.850;2023-08-31T03:59:49;12.80;99.90
22192;DHT22;11261;52.456;10.850;2023-08-31T04:02:17;12.80;99.90
22192;DHT22;11261;52.456;10.850;2023-08-31T04:04:46;12.80;99.90
22192;DHT22;11261;52.456;10.850;2023-08-31T04:07:14;12.80;99.90
22192;DHT22;11261;52.456;10.850;2023-08-31T04:09:43;12.80;99.90
22192;DHT22;11261;52.456;10.850;2023-08-31T04:12:11;12.80;99.90
22192;DHT22;11261;52.456;10.850;2023-08-31T04:14:41;12.70;99.90
22192;DHT22;11261;52.456;10.850;2023-08-31T04:17:09;12.70;99.90
22192;DHT22;11261;52.456;10.850;2023-08-31T04:19:37;12.70;99.90
22192;DHT22;11261;52.456;10.850;2023-08-31T04:22:06;12.70;99.90
22192;DHT22;11261;52.456;10.850;2023-08-31T04:24:34;12.70;99.90
22192;DHT22;11261;52.456;10.850;2023-08-31T04:27:02;12.70;99.90
22192;DHT22;11261;52.456;10.850;2023-08-31T04:29:31;12.70;99.90
22192;DHT22;11261;52.456;10.850;2023-08-31T04:32:01;12.60;99.90
22192;DHT22;11261;52.456;10.850;2023-08-31T04:34:29;12.60;99.90
22192;DHT22;11261;52.456;10.850;2023-08-31T04:36:57;12.60;99.90
22192;DHT22;11261;52.456;10.850;2023-08-31T04:39:25;12.60;99.90
22192;DHT22;11261;52.456;10.850;2023-08-31T04:41:54;12.60;99.90
22192;DHT22;11261;52.456;10.850;2023-08-31T04:44:22;12.60;99.90
22192;DHT22;11261;52.456;10.850;2023-08-31T04:46:50;12.60;99.90
22192;DHT22;11261;52.456;10.850;2023-08-31T04:49:19;12.60;99.90
22192;DHT22;11261;52.456;10.850;2023-08-31T04:51:48;12.60;99.90
22192;DHT22;11261;52.456;10.850;2023-08-31T04:54:16;12.70;99.90
22192;DHT22;11261;52.456;10.850;2023-08-31T04:56:44;12.80;99.90
22192;DHT22;11261;52.456;10.850;2023-08-31T04:59:13;13.00;99.90
22192;DHT22;11261;52.456;10.850;2023-08-31T05:01:41;12.90;99.90
22192;DHT22;11261;52.456;10.850;2023-08-31T05:04:09;13.00;99.90
22192;DHT22;11261;52.456;10.850;2023-08-31T05:06:39;13.20;99.90
22192;DHT22;11261;52.456;10.850;2023-08-31T05:09:07;13.30;99.90
22192;DHT22;11261;52.456;10.850;2023-08-31T05:11:36;13.40;99.90
22192;DHT22;11261;52.456;10.850;2023-08-31T05:14:05;13.50;99.90
22192;DHT22;11261;52.456;10.850;2023-08-31T05:16:50;13.40;99.90
22192;DHT22;11261;52.456;10.850;2023-08-31T05:19:36;13.30;99.90
22192;DHT22;11261;52.456;10.850;2023-08-31T05:22:06;13.40;99.90
22192;DHT22;11261;52.456;10.850;2023-08-31T05:24:34;13.50;99.90
22192;DHT22;11261;52.456;10.850;2023-08-31T05:27:20;13.70;99.90
22192;DHT22;11261;52.456;10.850;2023-08-31T05:30:06;13.60;99.90
22192;DHT22;11261;52.456;10.850;2023-08-31T05:32:35;13.80;99.90
22192;DHT22;11261;52.456;10.850;2023-08-31T05:35:04;13.80;99.90
22192;DHT22;11261;52.456;10.850;2023-08-31T05:37:34;14.20;99.90
22192;DHT22;11261;52.456;10.850;2023-08-31T05:40:03;14.10;99.90
22192;DHT22;11261;52.456;10.850;2023-08-31T05:42:33;14.40;99.90
22192;DHT22;11261;52.456;10.850;2023-08-31T05:45:02;14.20;99.90
22192;DHT22;11261;52.456;10.850;2023-08-31T05:47:31;14.10;99.90
22192;DHT22;11261;52.456;10.850;2023-08-31T05:49:59;14.20;99.90
22192;DHT22;11261;52.456;10.850;2023-08-31T05:52:27;14.30;99.90
22192;DHT22;11261;52.456;10.850;2023-08-31T05:54:57;14.50;99.90
22192;DHT22;11261;52.456;10.850;2023-08-31T05:57:26;15.00;99.90
22192;DHT22;11261;52.456;10.850;2023-08-31T05:59:54;15.00;99.90
22192;DHT22;11261;52.456;10.850;2023-08-31T06:05:59;15.00;99.90
22192;DHT22;11261;52.456;10.850;2023-08-31T06:08:27;15.00;99.90
22192;DHT22;11261;52.456;10.850;2023-08-31T06:10:58;15.30;99.90
22192;DHT22;11261;52.456;10.850;2023-08-31T06:13:26;16.00;99.90
22192;DHT22;11261;52.456;10.850;2023-08-31T06:15:55;16.00;99.90
22192;DHT22;11261;52.456;10.850;2023-08-31T06:18:25;15.60;99.90
22192;DHT22;11261;52.456;10.850;2023-08-31T06:20:53;15.80;99.90
22192;DHT22;11261;52.456;10.850;2023-08-31T06:23:38;15.80;99.90
22192;DHT22;11261;52.456;10.850;2023-08-31T08:50:43;17.90;99.90
22192;DHT22;11261;52.456;10.850;2023-08-31T08:53:12;18.20;99.90
22192;DHT22;11261;52.456;10.850;2023-08-31T08:55:42;17.70;99.90
22192;DHT22;11261;52.456;10.850;2023-08-31T08:58:10;17.80;99.90
22192;DHT22;11261;52.456;10.850;2023-08-31T09:00:38;17.30;99.90
22192;DHT22;11261;52.456;10.850;2023-08-31T09:03:08;17.50;99.90
22192;DHT22;11261;52.456;10.850;2023-08-31T09:05:37;18.00;99.90
22192;DHT22;11261;52.456;10.850;2023-08-31T09:08:08;17.80;99.90
22192;DHT22;11261;52.456;10.850;2023-08-31T09:10:40;17.70;99.90
22192;DHT22;11261;52.456;10.850;2023-08-31T09:13:09;17.70;99.90
22192;DHT22;11261;52.456;10.850;2023-08-31T09:15:42;18.00;99.90
22192;DHT22;11261;52.456;10.850;2023-08-31T09:18:15;17.80;99.90
22192;DHT22;11261;52.456;10.850;2023-08-31T09:20:44;17.80;99.90
22192;DHT22;11261;52.456;10.850;2023-08-31T09:23:15;18.20;99.90
22192;DHT22;11261;52.456;10.850;2023-08-31T09:25:45;18.80;99.90
22192;DHT22;11261;52.456;10.850;2023-08-31T09:35:08;19.30;99.90
22192;DHT22;11261;52.456;10.850;2023-08-31T09:37:55;20.00;99.90
22192;DHT22;11261;52.456;10.850;2023-08-31T09:43:52;18.90;99.90
22192;DHT22;11261;52.456;10.850;2023-08-31T09:46:21;19.20;99.90
22192;DHT22;11261;52.456;10.850;2023-08-31T09:48:50;19.60;99.90
22192;DHT22;11261;52.456;10.850;2023-08-31T09:51:20;19.80;99.90
22192;DHT22;11261;52.456;10.850;2023-08-31T09:53:54;20.00;99.90
22192;DHT22;11261;52.456;10.850;2023-08-31T09:56:28;20.40;99.90
22192;DHT22;11261;52.456;10.850;2023-08-31T09:59:00;20.30;99.90
22192;DHT22;11261;52.456;10.850;2023-08-31T10:01:29;19.80;99.90
22192;DHT22;11261;52.456;10.850;2023-08-31T10:03:59;20.10;99.90
22192;DHT22;11261;52.456;10.850;2023-08-31T10:09:48;19.80;99.90
22192;DHT22;11261;52.456;10.850;2023-08-31T10:15:59;19.00;99.90
22192;DHT22;11261;52.456;10.850;2023-08-31T10:18:28;18.90;99.90
22192;DHT22;11261;52.456;10.850;2023-08-31T10:20:57;18.90;99.90
22192;DHT22;11261;52.456;10.850;2023-08-31T10:23:25;18.50;99.90
22192;DHT22;11261;52.456;10.850;2023-08-31T10:26:00;18.80;99.90
22192;DHT22;11261;52.456;10.850;2023-08-31T10:28:39;19.70;99.90
22192;DHT22;11261;52.456;10.850;2023-08-31T10:31:10;19.90;99.90
22192;DHT22;11261;52.456;10.850;2023-08-31T10:33:42;20.00;99.90
22192;DHT22;11261;52.456;10.850;2023-08-31T10:36:12;20.00;99.90
22192;DHT22;11261;52.456;10.850;2023-08-31T10:38:42;20.10;99.90
22192;DHT22;11261;52.456;10.850;2023-08-31T10:41:19;20.60;99.90
22192;DHT22;11261;52.456;10.850;2023-08-31T10:43:50;21.10;99.90
22192;DHT22;11261;52.456;10.850;2023-08-31T10:46:25;20.90;99.90
22192;DHT22;11261;52.456;10.850;2023-08-31T10:48:55;20.60;99.90
22192;DHT22;11261;52.456;10.850;2023-08-31T10:51:28;20.40;99.90
22192;DHT22;11261;52.456;10.850;2023-08-31T10:54:07;20.00;99.90
22192;DHT22;11261;52.456;10.850;2023-08-31T10:56:54;20.00;99.90
22192;DHT22;11261;52.456;10.850;2023-08-31T10:59:24;19.80;99.90
22192;DHT22;11261;52.456;10.850;2023-08-31T11:02:26;19.60;99.90
22192;DHT22;11261;52.456;10.850;2023-08-31T11:05:00;20.10;99.90
22192;DHT22;11261;52.456;10.850;2023-08-31T11:07:30;20.00;99.90
22192;DHT22;11261;52.456;10.850;2023-08-31T11:10:08;19.80;99.90
22192;DHT22;11261;52.456;10.850;2023-08-31T11:12:37;20.10;99.90
22192;DHT22;11261;52.456;10.850;2023-08-31T11:15:06;20.30;99.90
22192;DHT22;11261;52.456;10.850;2023-08-31T11:17:37;21.00;99.90
22192;DHT22;11261;52.456;10.850;2023-08-31T11:20:08;20.90;99.90
22192;DHT22;11261;52.456;10.850;2023-08-31T11:22:41;21.10;99.90
22192;DHT22;11261;52.456;10.850;2023-08-31T11:25:12;20.80;99.90
22192;DHT22;11261;52.456;10.850;2023-08-31T11:27:40;20.80;99.90
22192;DHT22;11261;52.456;10.850;2023-08-31T11:30:14;21.10;99.90
22192;DHT22;11261;52.456;10.850;2023-08-31T11:32:51;21.40;99.90
22192;DHT22;11261;52.456;10.850;2023-08-31T11:35:21;21.20;99.90
22192;DHT22;11261;52.456;10.850;2023-08-31T11:37:51;21.30;99.90
22192;DHT22;11261;52.456;10.850;2023-08-31T11:40:19;21.40;99.90
22192;DHT22;11261;52.456;10.850;2023-08-31T11:42:48;20.90;99.90
22192;DHT22;11261;52.456;10.850;2023-08-31T11:45:17;20.80;99.90
22192;DHT22;11261;52.456;10.850;2023-08-31T11:47:48;20.70;99.90
22192;DHT22;11261;52.456;10.850;2023-08-31T11:50:18;20.80;99.90
22192;DHT22;11261;52.456;10.850;2023-08-31T11:52:47;21.20;99.90
22192;DHT22;11261;52.456;10.850;2023-08-31T11:55:16;21.00;99.90
22192;DHT22;11261;52.456;10.850;2023-08-31T11:57:49;20.90;99.90
22192;DHT22;11261;52.456;10.850;2023-08-31T12:00:18;20.60;99.90
22192;DHT22;11261;52.456;10.850;2023-08-31T12:02:56;21.10;99.90
22192;DHT22;11261;52.456;10.850;2023-08-31T12:05:25;21.20;99.90
22192;DHT22;11261;52.456;10.850;2023-08-31T12:07:54;21.70;99.90
22192;DHT22;11261;52.456;10.850;2023-08-31T12:10:24;21.90;99.90
22192;DHT22;11261;52.456;10.850;2023-08-31T12:12:53;21.50;99.90
22192;DHT22;11261;52.456;10.850;2023-08-31T12:15:23;21.40;99.90
22192;DHT22;11261;52.456;10.850;2023-08-31T12:18:00;21.50;99.90
22192;DHT22;11261;52.456;10.850;2023-08-31T12:20:34;21.50;99.90
22192;DHT22;11261;52.456;10.850;2023-08-31T12:23:07;22.00;99.90
22192;DHT22;11261;52.456;10.850;2023-08-31T12:25:37;22.10;99.90
22192;DHT22;11261;52.456;10.850;2023-08-31T12:28:05;22.20;99.90
22192;DHT22;11261;52.456;10.850;2023-08-31T12:30:34;22.10;99.90
22192;DHT22;11261;52.456;10.850;2023-08-31T12:33:03;21.70;99.90
22192;DHT22;11261;52.456;10.850;2023-08-31T12:35:32;21.30;99.90
22192;DHT22;11261;52.456;10.850;2023-08-31T12:38:00;21.00;99.90
22192;DHT22;11261;52.456;10.850;2023-08-31T12:40:29;21.30;99.90
22192;DHT22;11261;52.456;10.850;2023-08-31T12:42:57;21.30;99.90
22192;DHT22;11261;52.456;10.850;2023-08-31T12:45:25;21.30;99.90
22192;DHT22;11261;52.456;10.850;2023-08-31T12:47:53;21.10;99.90
22192;DHT22;11261;52.456;10.850;2023-08-31T12:50:23;21.20;99.90
22192;DHT22;11261;52.456;10.850;2023-08-31T12:52:51;20.40;99.90
22192;DHT22;11261;52.456;10.850;2023-08-31T12:55:19;20.30;99.90
22192;DHT22;11261;52.456;10.850;2023-08-31T12:57:47;20.10;99.90
22192;DHT22;11261;52.456;10.850;2023-08-31T13:00:17;20.40;99.90
22192;DHT22;11261;52.456;10.850;2023-08-31T13:02:45;20.00;99.90
22192;DHT22;11261;52.456;10.850;2023-08-31T13:05:14;20.20;99.90
22192;DHT22;11261;52.456;10.850;2023-08-31T13:07:44;20.50;99.90
22192;DHT22;11261;52.456;10.850;2023-08-31T13:10:12;20.60;99.90
22192;DHT22;11261;52.456;10.850;2023-08-31T13:12:40;20.90;99.90
22192;DHT22;11261;52.456;10.850;2023-08-31T13:15:09;20.60;99.90
22192;DHT22;11261;52.456;10.850;2023-08-31T13:17:37;20.80;99.90
22192;DHT22;11261;52.456;10.850;2023-08-31T13:20:06;20.40;99.90
22192;DHT22;11261;52.456;10.850;2023-08-31T13:22:35;19.90;99.90
22192;DHT22;11261;52.456;10.850;2023-08-31T13:25:06;20.10;99.90
22192;DHT22;11261;52.456;10.850;2023-08-31T13:27:34;20.00;99.90
22192;DHT22;11261;52.456;10.850;2023-08-31T13:30:04;19.80;99.90
22192;DHT22;11261;52.456;10.850;2023-08-31T13:32:33;18.90;99.90
22192;DHT22;11261;52.456;10.850;2023-08-31T13:35:02;19.10;99.90
22192;DHT22;11261;52.456;10.850;2023-08-31T13:37:34;18.80;99.90
22192;DHT22;11261;52.456;10.850;2023-08-31T13:40:05;18.60;99.90
22192;DHT22;11261;52.456;10.850;2023-08-31T13:42:35;18.70;99.90
22192;DHT22;11261;52.456;10.850;2023-08-31T13:45:07;18.50;99.90
22192;DHT22;11261;52.456;10.850;2023-08-31T13:47:35;18.30;99.90
22192;DHT22;11261;52.456;10.850;2023-08-31T13:50:04;17.90;99.90
22192;DHT22;11261;52.456;10.850;2023-08-31T13:52:32;17.70;99.90
22192;DHT22;11261;52.456;10.850;2023-08-31T13:55:00;17.70;99.90
22192;DHT22;11261;52.456;10.850;2023-08-31T13:57:30;17.70;99.90
22192;DHT22;11261;52.456;10.850;2023-08-31T13:59:58;17.70;99.90
22192;DHT22;11261;52.456;10.850;2023-08-31T14:02:27;18.40;99.90
22192;DHT22;11261;52.456;10.850;2023-08-31T14:04:55;18.40;99.90
22192;DHT22;11261;52.456;10.850;2023-08-31T14:07:24;18.60;99.90
22192;DHT22;11261;52.456;10.850;2023-08-31T14:09:52;18.80;99.90
22192;DHT22;11261;52.456;10.850;2023-08-31T14:12:20;18.40;99.90
22192;DHT22;11261;52.456;10.850;2023-08-31T14:14:49;18.60;99.90
22192;DHT22;11261;52.456;10.850;2023-08-31T14:17:18;18.80;99.90
22192;DHT22;11261;52.456;10.850;2023-08-31T14:19:46;18.70;99.90
22192;DHT22;11261;52.456;10.850;2023-08-31T14:22:14;18.80;99.90
22192;DHT22;11261;52.456;10.850;2023-08-31T14:24:43;18.60;99.90
22192;DHT22;11261;52.456;10.850;2023-08-31T14:27:13;18.60;99.90
22192;DHT22;11261;52.456;10.850;2023-08-31T14:29:41;18.70;99.90
22192;DHT22;11261;52.456;10.850;2023-08-31T14:32:11;18.70;99.90
22192;DHT22;11261;52.456;10.850;2023-08-31T14:34:39;18.70;99.90
22192;DHT22;11261;52.456;10.850;2023-08-31T14:37:07;18.30;99.90
22192;DHT22;11261;52.456;10.850;2023-08-31T14:39:36;18.50;99.90
22192;DHT22;11261;52.456;10.850;2023-08-31T14:42:04;18.10;99.90
22192;DHT22;11261;52.456;10.850;2023-08-31T14:44:32;18.00;99.90
22192;DHT22;11261;52.456;10.850;2023-08-31T14:47:00;18.00;99.90
22192;DHT22;11261;52.456;10.850;2023-08-31T14:49:30;18.20;99.90
22192;DHT22;11261;52.456;10.850;2023-08-31T14:51:58;18.20;99.90
22192;DHT22;11261;52.456;10.850;2023-08-31T14:54:32;18.00;99.90
22192;DHT22;11261;52.456;10.850;2023-08-31T14:57:01;17.90;99.90
22192;DHT22;11261;52.456;10.850;2023-08-31T14:59:30;17.30;99.90
22192;DHT22;11261;52.456;10.850;2023-08-31T15:01:58;16.60;99.90
22192;DHT22;11261;52.456;10.850;2023-08-31T15:04:30;16.10;99.90
22192;DHT22;11261;52.456;10.850;2023-08-31T15:06:58;16.10;99.90
22192;DHT22;11261;52.456;10.850;2023-08-31T15:09:26;16.20;99.90
22192;DHT22;11261;52.456;10.850;2023-08-31T15:11:55;15.50;99.90
22192;DHT22;11261;52.456;10.850;2023-08-31T15:14:23;15.00;99.90
22192;DHT22;11261;52.456;10.850;2023-08-31T15:16:51;15.00;99.90
22192;DHT22;11261;52.456;10.850;2023-08-31T15:19:20;15.30;99.90
22192;DHT22;11261;52.456;10.850;2023-08-31T15:21:49;15.20;99.90
22192;DHT22;11261;52.456;10.850;2023-08-31T15:24:17;15.20;99.90
22192;DHT22;11261;52.456;10.850;2023-08-31T15:26:46;15.50;99.90
22192;DHT22;11261;52.456;10.850;2023-08-31T15:29:14;15.50;99.90
22192;DHT22;11261;52.456;10.850;2023-08-31T15:31:42;15.50;99.90
22192;DHT22;11261;52.456;10.850;2023-08-31T15:34:10;15.70;99.90
22192;DHT22;11261;52.456;10.850;2023-08-31T15:36:39;15.90;99.90
22192;DHT22;11261;52.456;10.850;2023-08-31T15:39:09;15.90;99.90
22192;DHT22;11261;52.456;10.850;2023-08-31T15:41:39;16.10;99.90
22192;DHT22;11261;52.456;10.850;2023-08-31T15:44:07;15.80;99.90
22192;DHT22;11261;52.456;10.850;2023-08-31T15:46:35;15.50;99.90
22192;DHT22;11261;52.456;10.850;2023-08-31T15:49:04;15.50;99.90
22192;DHT22;11261;52.456;10.850;2023-08-31T15:51:32;15.70;99.90
22192;DHT22;11261;52.456;10.850;2023-08-31T15:54:00;15.90;99.90
22192;DHT22;11261;52.456;10.850;2023-08-31T15:56:32;15.80;99.90
22192;DHT22;11261;52.456;10.850;2023-08-31T15:59:01;15.70;99.90
22192;DHT22;11261;52.456;10.850;2023-08-31T16:01:30;15.90;99.90
22192;DHT22;11261;52.456;10.850;2023-08-31T16:03:58;16.00;99.90
22192;DHT22;11261;52.456;10.850;2023-08-31T16:06:27;15.60;99.90
22192;DHT22;11261;52.456;10.850;2023-08-31T16:08:57;15.80;99.90
22192;DHT22;11261;52.456;10.850;2023-08-31T16:11:25;15.60;99.90
22192;DHT22;11261;52.456;10.850;2023-08-31T16:13:55;15.60;99.90
22192;DHT22;11261;52.456;10.850;2023-08-31T16:16:23;15.70;99.90
22192;DHT22;11261;52.456;10.850;2023-08-31T16:18:52;15.50;99.90
22192;DHT22;11261;52.456;10.850;2023-08-31T16:21:20;15.80;99.90
22192;DHT22;11261;52.456;10.850;2023-08-31T16:23:48;15.80;99.90
22192;DHT22;11261;52.456;10.850;2023-08-31T16:26:17;16.00;99.90
22192;DHT22;11261;52.456;10.850;2023-08-31T16:28:45;16.30;99.90
22192;DHT22;11261;52.456;10.850;2023-08-31T16:31:15;16.20;99.90
22192;DHT22;11261;52.456;10.850;2023-08-31T16:33:43;16.20;99.90
22192;DHT22;11261;52.456;10.850;2023-08-31T16:36:11;16.10;99.90
22192;DHT22;11261;52.456;10.850;2023-08-31T16:38:40;16.20;99.90
22192;DHT22;11261;52.456;10.850;2023-08-31T16:41:09;16.40;99.90
22192;DHT22;11261;52.456;10.850;2023-08-31T16:43:37;16.20;99.90
22192;DHT22;11261;52.456;10.850;2023-08-31T16:46:06;16.30;99.90
22192;DHT22;11261;52.456;10.850;2023-08-31T16:48:35;16.50;99.90
22192;DHT22;11261;52.456;10.850;2023-08-31T16:51:04;16.60;99.90
22192;DHT22;11261;52.456;10.850;2023-08-31T16:53:32;16.50;99.90
22192;DHT22;11261;52.456;10.850;2023-08-31T16:56:03;16.50;99.90
22192;DHT22;11261;52.456;10.850;2023-08-31T16:58:31;16.30;99.90
22192;DHT22;11261;52.456;10.850;2023-08-31T17:01:00;16.30;99.90
22192;DHT22;11261;52.456;10.850;2023-08-31T17:03:29;16.50;99.90
22192;DHT22;11261;52.456;10.850;2023-08-31T17:05:59;16.50;99.90
22192;DHT22;11261;52.456;10.850;2023-08-31T17:08:27;16.40;99.90
22192;DHT22;11261;52.456;10.850;2023-08-31T17:10:56;16.40;99.90
22192;DHT22;11261;52.456;10.850;2023-08-31T17:13:24;16.40;99.90
22192;DHT22;11261;52.456;10.850;2023-08-31T17:15:52;16.30;99.90
22192;DHT22;11261;52.456;10.850;2023-08-31T17:18:21;16.20;99.90
22192;DHT22;11261;52.456;10.850;2023-08-31T17:20:49;16.10;99.90
22192;DHT22;11261;52.456;10.850;2023-08-31T17:23:19;16.20;99.90
22192;DHT22;11261;52.456;10.850;2023-08-31T17:25:47;16.30;99.90
22192;DHT22;11261;52.456;10.850;2023-08-31T17:28:15;16.40;99.90
22192;DHT22;11261;52.456;10.850;2023-08-31T17:30:43;16.20;99.90
22192;DHT22;11261;52.456;10.850;2023-08-31T17:33:12;16.00;99.90
22192;DHT22;11261;52.456;10.850;2023-08-31T17:35:40;15.90;99.90
22192;DHT22;11261;52.456;10.850;2023-08-31T17:38:09;15.70;99.90
22192;DHT22;11261;52.456;10.850;2023-08-31T17:40:41;15.80;99.90
22192;DHT22;11261;52.456;10.850;2023-08-31T17:43:10;15.90;99.90
22192;DHT22;11261;52.456;10.850;2023-08-31T17:45:39;15.80;99.90
22192;DHT22;11261;52.456;10.850;2023-08-31T17:48:08;15.90;99.90
22192;DHT22;11261;52.456;10.850;2023-08-31T17:50:36;15.80;99.90
22192;DHT22;11261;52.456;10.850;2023-08-31T17:53:05;15.70;99.90
22192;DHT22;11261;52.456;10.850;2023-08-31T17:55:33;15.50;99.90
22192;DHT22;11261;52.456;10.850;2023-08-31T17:58:03;15.50;99.90
22192;DHT22;11261;52.456;10.850;2023-08-31T18:00:32;15.60;99.90
22192;DHT22;11261;52.456;10.850;2023-08-31T18:03:00;15.60;99.90
22192;DHT22;11261;52.456;10.850;2023-08-31T18:05:31;15.50;99.90
22192;DHT22;11261;52.456;10.850;2023-08-31T18:07:59;15.30;99.90
22192;DHT22;11261;52.456;10.850;2023-08-31T18:10:28;15.30;99.90
22192;DHT22;11261;52.456;10.850;2023-08-31T18:12:56;15.30;99.90
22192;DHT22;11261;52.456;10.850;2023-08-31T18:15:25;15.30;99.90